sensor_id;sensor_type;location;lat;lon;timestamp;P1;durP1;ratioP1;P2;durP2;ratioP2
18023;SDS011;9137;50.960;3.118;2023-06-22T00:01:13;6.53;;;5.90;;
18023;SDS011;9137;50.960;3.118;2023-06-22T00:03:40;6.40;;;5.78;;
18023;SDS011;9137;50.960;3.118;2023-06-22T00:06:06;7.03;;;6.15;;
18023;SDS011;9137;50.960;3.118;2023-06-22T00:08:33;6.85;;;6.18;;
18023;SDS011;9137;50.960;3.118;2023-06-22T00:11:00;6.47;;;5.88;;
18023;SDS011;9137;50.960;3.118;2023-06-22T00:13:27;6.97;;;5.95;;
18023;SDS011;9137;50.960;3.118;2023-06-22T00:15:54;6.88;;;6.20;;
18023;SDS011;9137;50.960;3.118;2023-06-22T00:18:22;6.88;;;6.28;;
18023;SDS011;9137;50.960;3.118;2023-06-22T00:20:52;6.82;;;6.13;;
18023;SDS011;9137;50.960;3.118;2023-06-22T00:23:22;6.43;;;5.82;;
18023;SDS011;9137;50.960;3.118;2023-06-22T00:25:50;6.70;;;6.10;;
18023;SDS011;9137;50.960;3.118;2023-06-22T00:28:17;7.47;;;6.78;;
18023;SDS011;9137;50.960;3.118;2023-06-22T00:30:44;7.15;;;6.45;;
18023;SDS011;9137;50.960;3.118;2023-06-22T00:33:11;7.50;;;6.77;;
18023;SDS011;9137;50.960;3.118;2023-06-22T00:35:39;7.72;;;7.03;;
18023;SDS011;9137;50.960;3.118;2023-06-22T00:38:07;7.32;;;6.70;;
18023;SDS011;9137;50.960;3.118;2023-06-22T00:40:34;8.65;;;7.18;;
18023;SDS011;9137;50.960;3.118;2023-06-22T00:43:01;8.80;;;7.40;;
18023;SDS011;9137;50.960;3.118;2023-06-22T00:45:28;8.57;;;7.75;;
18023;SDS011;9137;50.960;3.118;2023-06-22T00:47:56;8.45;;;7.55;;
18023;SDS011;9137;50.960;3.118;2023-06-22T00:50:24;9.38;;;8.02;;
18023;SDS011;9137;50.960;3.118;2023-06-22T00:52:54;7.97;;;7.15;;
18023;SDS011;9137;50.960;3.118;2023-06-22T00:55:23;8.37;;;7.63;;
18023;SDS011;9137;50.960;3.118;2023-06-22T00:57:51;7.87;;;7.13;;
18023;SDS011;9137;50.960;3.118;2023-06-22T01:00:20;7.80;;;7.00;;
18023;SDS011;9137;50.960;3.118;2023-06-22T01:02:50;8.25;;;7.40;;
18023;SDS011;9137;50.960;3.118;2023-06-22T01:05:18;8.45;;;7.60;;
18023;SDS011;9137;50.960;3.118;2023-06-22T01:07:49;8.68;;;7.80;;
18023;SDS011;9137;50.960;3.118;2023-06-22T01:10:25;8.55;;;7.78;;
18023;SDS011;9137;50.960;3.118;2023-06-22T01:12:58;9.32;;;8.43;;
18023;SDS011;9137;50.960;3.118;2023-06-22T01:15:31;8.85;;;8.02;;
18023;SDS011;9137;50.960;3.118;2023-06-22T01:18:02;8.38;;;7.68;;
18023;SDS011;9137;50.960;3.118;2023-06-22T01:20:30;9.38;;;8.38;;
18023;SDS011;9137;50.960;3.118;2023-06-22T01:23:05;7.57;;;6.88;;
18023;SDS011;9137;50.960;3.118;2023-06-22T01:25:40;7.88;;;7.07;;
18023;SDS011;9137;50.960;3.118;2023-06-22T01:28:17;8.45;;;7.72;;
18023;SDS011;9137;50.960;3.118;2023-06-22T01:30:53;7.60;;;6.90;;
18023;SDS011;9137;50.960;3.118;2023-06-22T01:33:29;7.78;;;7.07;;
18023;SDS011;9137;50.960;3.118;2023-06-22T01:35:57;8.02;;;7.18;;
18023;SDS011;9137;50.960;3.118;2023-06-22T01:38:25;7.70;;;7.00;;
18023;SDS011;9137;50.960;3.118;2023-06-22T01:40:55;7.82;;;7.13;;
18023;SDS011;9137;50.960;3.118;2023-06-22T01:43:23;7.65;;;6.95;;
18023;SDS011;9137;50.960;3.118;2023-06-22T01:45:51;7.40;;;6.57;;
18023;SDS011;9137;50.960;3.118;2023-06-22T01:48:20;6.80;;;6.22;;
18023;SDS011;9137;50.960;3.118;2023-06-22T01:50:48;7.93;;;7.22;;
18023;SDS011;9137;50.960;3.118;2023-06-22T01:53:15;8.33;;;7.60;;
18023;SDS011;9137;50.960;3.118;2023-06-22T01:55:42;8.77;;;7.72;;
18023;SDS011;9137;50.960;3.118;2023-06-22T01:58:09;8.13;;;7.38;;
18023;SDS011;9137;50.960;3.118;2023-06-22T02:00:37;8.18;;;7.45;;
18023;SDS011;9137;50.960;3.118;2023-06-22T02:03:08;7.82;;;7.13;;
18023;SDS011;9137;50.960;3.118;2023-06-22T02:05:38;9.05;;;8.15;;
18023;SDS011;9137;50.960;3.118;2023-06-22T02:08:09;8.35;;;7.55;;
18023;SDS011;9137;50.960;3.118;2023-06-22T02:10:39;8.80;;;7.90;;
18023;SDS011;9137;50.960;3.118;2023-06-22T02:13:07;8.35;;;7.55;;
18023;SDS011;9137;50.960;3.118;2023-06-22T02:15:36;8.40;;;7.60;;
18023;SDS011;9137;50.960;3.118;2023-06-22T02:18:03;8.15;;;7.45;;
18023;SDS011;9137;50.960;3.118;2023-06-22T02:20:32;7.70;;;7.00;;
18023;SDS011;9137;50.960;3.118;2023-06-22T02:22:58;8.38;;;7.47;;
18023;SDS011;9137;50.960;3.118;2023-06-22T02:25:25;8.75;;;7.95;;
18023;SDS011;9137;50.960;3.118;2023-06-22T02:27:52;8.83;;;7.77;;
18023;SDS011;9137;50.960;3.118;2023-06-22T02:30:19;8.85;;;7.95;;
18023;SDS011;9137;50.960;3.118;2023-06-22T02:32:46;9.33;;;8.37;;
18023;SDS011;9137;50.960;3.118;2023-06-22T02:35:13;8.35;;;7.55;;
18023;SDS011;9137;50.960;3.118;2023-06-22T02:37:41;12.10;;;8.33;;
18023;SDS011;9137;50.960;3.118;2023-06-22T02:40:08;10.68;;;9.70;;
18023;SDS011;9137;50.960;3.118;2023-06-22T02:42:36;9.63;;;8.35;;
18023;SDS011;9137;50.960;3.118;2023-06-22T02:45:03;9.47;;;8.57;;
18023;SDS011;9137;50.960;3.118;2023-06-22T02:47:40;9.98;;;8.98;;
18023;SDS011;9137;50.960;3.118;2023-06-22T02:50:25;10.40;;;9.20;;
18023;SDS011;9137;50.960;3.118;2023-06-22T02:52:53;11.07;;;9.93;;
18023;SDS011;9137;50.960;3.118;2023-06-22T02:55:20;9.80;;;8.90;;
18023;SDS011;9137;50.960;3.118;2023-06-22T02:57:48;10.23;;;9.23;;
18023;SDS011;9137;50.960;3.118;2023-06-22T03:00:18;10.35;;;9.13;;
18023;SDS011;9137;50.960;3.118;2023-06-22T03:02:47;11.10;;;10.00;;
18023;SDS011;9137;50.960;3.118;2023-06-22T03:05:15;9.73;;;8.73;;
18023;SDS011;9137;50.960;3.118;2023-06-22T03:07:43;11.00;;;9.90;;
18023;SDS011;9137;50.960;3.118;2023-06-22T03:10:12;10.82;;;9.57;;
18023;SDS011;9137;50.960;3.118;2023-06-22T03:12:40;10.32;;;9.30;;
18023;SDS011;9137;50.960;3.118;2023-06-22T03:15:09;10.52;;;9.48;;
18023;SDS011;9137;50.960;3.118;2023-06-22T03:17:37;9.70;;;8.60;;
18023;SDS011;9137;50.960;3.118;2023-06-22T03:20:06;11.80;;;9.32;;
18023;SDS011;9137;50.960;3.118;2023-06-22T03:22:36;10.35;;;9.35;;
18023;SDS011;9137;50.960;3.118;2023-06-22T03:25:03;11.25;;;10.05;;
18023;SDS011;9137;50.960;3.118;2023-06-22T03:27:36;10.83;;;9.70;;
18023;SDS011;9137;50.960;3.118;2023-06-22T03:30:03;10.77;;;9.30;;
18023;SDS011;9137;50.960;3.118;2023-06-22T03:32:31;10.10;;;9.10;;
18023;SDS011;9137;50.960;3.118;2023-06-22T03:34:58;10.88;;;9.65;;
18023;SDS011;9137;50.960;3.118;2023-06-22T03:37:25;9.65;;;8.75;;
18023;SDS011;9137;50.960;3.118;2023-06-22T03:39:52;10.35;;;9.25;;
18023;SDS011;9137;50.960;3.118;2023-06-22T03:42:19;9.68;;;8.77;;
18023;SDS011;9137;50.960;3.118;2023-06-22T03:44:47;9.30;;;8.43;;
18023;SDS011;9137;50.960;3.118;2023-06-22T03:47:14;9.45;;;8.55;;
18023;SDS011;9137;50.960;3.118;2023-06-22T03:49:41;10.07;;;9.13;;
18023;SDS011;9137;50.960;3.118;2023-06-22T03:52:07;9.10;;;8.20;;
18023;SDS011;9137;50.960;3.118;2023-06-22T03:54:35;10.05;;;9.15;;
18023;SDS011;9137;50.960;3.118;2023-06-22T03:57:03;9.73;;;8.32;;
18023;SDS011;9137;50.960;3.118;2023-06-22T03:59:30;9.77;;;8.80;;
18023;SDS011;9137;50.960;3.118;2023-06-22T04:01:58;9.27;;;8.23;;
18023;SDS011;9137;50.960;3.118;2023-06-22T04:04:25;9.18;;;8.30;;
18023;SDS011;9137;50.960;3.118;2023-06-22T04:06:52;8.07;;;7.38;;
18023;SDS011;9137;50.960;3.118;2023-06-22T04:09:19;8.57;;;7.78;;
18023;SDS011;9137;50.960;3.118;2023-06-22T04:11:47;8.50;;;7.70;;
18023;SDS011;9137;50.960;3.118;2023-06-22T04:14:14;8.32;;;7.53;;
18023;SDS011;9137;50.960;3.118;2023-06-22T04:16:41;8.55;;;7.65;;
18023;SDS011;9137;50.960;3.118;2023-06-22T04:19:09;8.50;;;7.60;;
18023;SDS011;9137;50.960;3.118;2023-06-22T04:21:41;8.57;;;7.78;;
18023;SDS011;9137;50.960;3.118;2023-06-22T04:24:08;7.32;;;6.63;;
18023;SDS011;9137;50.960;3.118;2023-06-22T04:26:35;8.32;;;7.43;;
18023;SDS011;9137;50.960;3.118;2023-06-22T04:29:03;8.40;;;7.47;;
18023;SDS011;9137;50.960;3.118;2023-06-22T04:31:30;7.53;;;6.80;;
18023;SDS011;9137;50.960;3.118;2023-06-22T04:34:02;7.47;;;6.88;;
18023;SDS011;9137;50.960;3.118;2023-06-22T04:36:35;7.93;;;7.13;;
18023;SDS011;9137;50.960;3.118;2023-06-22T04:39:04;8.05;;;7.25;;
18023;SDS011;9137;50.960;3.118;2023-06-22T04:41:32;6.63;;;5.95;;
18023;SDS011;9137;50.960;3.118;2023-06-22T04:44:07;7.30;;;5.90;;
18023;SDS011;9137;50.960;3.118;2023-06-22T04:46:35;7.50;;;6.80;;
18023;SDS011;9137;50.960;3.118;2023-06-22T04:49:04;7.03;;;6.03;;
18023;SDS011;9137;50.960;3.118;2023-06-22T04:51:36;6.65;;;5.75;;
18023;SDS011;9137;50.960;3.118;2023-06-22T04:54:06;6.65;;;6.05;;
18023;SDS011;9137;50.960;3.118;2023-06-22T04:56:34;6.45;;;5.82;;
18023;SDS011;9137;50.960;3.118;2023-06-22T04:59:01;7.47;;;5.95;;
18023;SDS011;9137;50.960;3.118;2023-06-22T05:01:29;6.38;;;5.68;;
18023;SDS011;9137;50.960;3.118;2023-06-22T05:03:57;6.57;;;5.75;;
18023;SDS011;9137;50.960;3.118;2023-06-22T05:06:26;6.40;;;5.88;;
18023;SDS011;9137;50.960;3.118;2023-06-22T05:11:42;5.50;;;4.95;;
18023;SDS011;9137;50.960;3.118;2023-06-22T05:14:10;6.97;;;5.30;;
18023;SDS011;9137;50.960;3.118;2023-06-22T05:16:37;6.85;;;5.45;;
18023;SDS011;9137;50.960;3.118;2023-06-22T05:19:04;6.38;;;5.78;;
18023;SDS011;9137;50.960;3.118;2023-06-22T05:21:31;6.33;;;5.27;;
18023;SDS011;9137;50.960;3.118;2023-06-22T05:23:58;6.30;;;5.70;;
18023;SDS011;9137;50.960;3.118;2023-06-22T05:26:29;6.35;;;5.75;;
18023;SDS011;9137;50.960;3.118;2023-06-22T05:28:57;6.18;;;5.35;;
18023;SDS011;9137;50.960;3.118;2023-06-22T05:31:24;5.67;;;5.17;;
18023;SDS011;9137;50.960;3.118;2023-06-22T05:33:51;6.38;;;5.78;;
18023;SDS011;9137;50.960;3.118;2023-06-22T05:36:19;6.95;;;6.25;;
18023;SDS011;9137;50.960;3.118;2023-06-22T05:38:50;6.22;;;5.70;;
18023;SDS011;9137;50.960;3.118;2023-06-22T05:41:17;6.65;;;6.05;;
18023;SDS011;9137;50.960;3.118;2023-06-22T05:43:46;6.18;;;5.68;;
18023;SDS011;9137;50.960;3.118;2023-06-22T05:46:12;7.10;;;5.90;;
18023;SDS011;9137;50.960;3.118;2023-06-22T05:48:39;6.38;;;5.75;;
18023;SDS011;9137;50.960;3.118;2023-06-22T05:51:06;7.70;;;5.50;;
18023;SDS011;9137;50.960;3.118;2023-06-22T05:53:33;6.40;;;5.72;;
18023;SDS011;9137;50.960;3.118;2023-06-22T05:56:00;5.85;;;5.25;;
18023;SDS011;9137;50.960;3.118;2023-06-22T05:58:27;5.88;;;5.38;;
18023;SDS011;9137;50.960;3.118;2023-06-22T06:00:55;6.32;;;5.63;;
18023;SDS011;9137;50.960;3.118;2023-06-22T06:03:22;6.00;;;5.40;;
18023;SDS011;9137;50.960;3.118;2023-06-22T06:05:49;5.30;;;4.80;;
18023;SDS011;9137;50.960;3.118;2023-06-22T06:08:16;5.50;;;5.05;;
18023;SDS011;9137;50.960;3.118;2023-06-22T06:10:43;5.53;;;5.03;;
18023;SDS011;9137;50.960;3.118;2023-06-22T06:13:10;5.82;;;5.28;;
18023;SDS011;9137;50.960;3.118;2023-06-22T06:15:37;6.30;;;5.70;;
18023;SDS011;9137;50.960;3.118;2023-06-22T06:18:05;7.07;;;5.35;;
18023;SDS011;9137;50.960;3.118;2023-06-22T06:20:32;5.82;;;5.32;;
18023;SDS011;9137;50.960;3.118;2023-06-22T06:22:59;6.35;;;5.55;;
18023;SDS011;9137;50.960;3.118;2023-06-22T06:25:26;6.60;;;5.97;;
18023;SDS011;9137;50.960;3.118;2023-06-22T06:27:58;6.55;;;5.57;;
18023;SDS011;9137;50.960;3.118;2023-06-22T06:30:25;12.82;;;7.18;;
18023;SDS011;9137;50.960;3.118;2023-06-22T06:32:52;16.30;;;7.50;;
18023;SDS011;9137;50.960;3.118;2023-06-22T06:35:20;12.00;;;6.60;;
18023;SDS011;9137;50.960;3.118;2023-06-22T06:37:48;6.57;;;5.95;;
18023;SDS011;9137;50.960;3.118;2023-06-22T06:40:16;8.83;;;6.70;;
18023;SDS011;9137;50.960;3.118;2023-06-22T06:42:44;9.05;;;6.60;;
18023;SDS011;9137;50.960;3.118;2023-06-22T06:45:12;7.07;;;6.37;;
18023;SDS011;9137;50.960;3.118;2023-06-22T06:47:42;9.80;;;7.13;;
18023;SDS011;9137;50.960;3.118;2023-06-22T06:50:10;8.63;;;6.70;;
18023;SDS011;9137;50.960;3.118;2023-06-22T06:52:39;10.43;;;6.18;;
18023;SDS011;9137;50.960;3.118;2023-06-22T06:55:07;13.18;;;7.57;;
18023;SDS011;9137;50.960;3.118;2023-06-22T06:57:36;10.05;;;7.25;;
18023;SDS011;9137;50.960;3.118;2023-06-22T07:00:04;10.52;;;6.90;;
18023;SDS011;9137;50.960;3.118;2023-06-22T07:02:37;11.35;;;7.00;;
18023;SDS011;9137;50.960;3.118;2023-06-22T07:05:05;11.13;;;7.53;;
18023;SDS011;9137;50.960;3.118;2023-06-22T07:07:32;7.50;;;6.80;;
18023;SDS011;9137;50.960;3.118;2023-06-22T07:10:00;10.95;;;7.63;;
18023;SDS011;9137;50.960;3.118;2023-06-22T07:12:28;9.13;;;7.90;;
18023;SDS011;9137;50.960;3.118;2023-06-22T07:15:00;8.02;;;7.28;;
18023;SDS011;9137;50.960;3.118;2023-06-22T07:17:28;8.32;;;7.53;;
18023;SDS011;9137;50.960;3.118;2023-06-22T07:19:55;8.30;;;7.53;;
18023;SDS011;9137;50.960;3.118;2023-06-22T07:22:22;11.63;;;8.18;;
18023;SDS011;9137;50.960;3.118;2023-06-22T07:24:49;12.10;;;8.75;;
18023;SDS011;9137;50.960;3.118;2023-06-22T07:27:17;21.77;;;9.05;;
18023;SDS011;9137;50.960;3.118;2023-06-22T07:29:45;8.93;;;8.07;;
18023;SDS011;9137;50.960;3.118;2023-06-22T07:32:12;8.90;;;8.10;;
18023;SDS011;9137;50.960;3.118;2023-06-22T07:34:38;8.70;;;7.82;;
18023;SDS011;9137;50.960;3.118;2023-06-22T07:37:06;10.52;;;8.75;;
18023;SDS011;9137;50.960;3.118;2023-06-22T07:39:33;8.67;;;7.87;;
18023;SDS011;9137;50.960;3.118;2023-06-22T07:42:00;9.55;;;8.65;;
18023;SDS011;9137;50.960;3.118;2023-06-22T07:44:28;10.45;;;8.82;;
18023;SDS011;9137;50.960;3.118;2023-06-22T07:46:55;13.52;;;8.77;;
18023;SDS011;9137;50.960;3.118;2023-06-22T07:49:22;10.63;;;9.20;;
18023;SDS011;9137;50.960;3.118;2023-06-22T07:51:49;10.23;;;9.20;;
18023;SDS011;9137;50.960;3.118;2023-06-22T07:54:16;11.00;;;9.90;;
18023;SDS011;9137;50.960;3.118;2023-06-22T07:56:43;9.93;;;9.05;;
18023;SDS011;9137;50.960;3.118;2023-06-22T07:59:10;10.90;;;9.80;;
18023;SDS011;9137;50.960;3.118;2023-06-22T08:01:38;10.27;;;9.32;;
18023;SDS011;9137;50.960;3.118;2023-06-22T08:04:05;11.20;;;10.17;;
18023;SDS011;9137;50.960;3.118;2023-06-22T08:06:32;11.65;;;10.65;;
18023;SDS011;9137;50.960;3.118;2023-06-22T08:08:58;11.40;;;10.30;;
18023;SDS011;9137;50.960;3.118;2023-06-22T08:11:25;11.90;;;10.75;;
18023;SDS011;9137;50.960;3.118;2023-06-22T08:13:53;11.13;;;9.85;;
18023;SDS011;9137;50.960;3.118;2023-06-22T08:16:20;13.32;;;11.93;;
18023;SDS011;9137;50.960;3.118;2023-06-22T08:18:49;13.32;;;11.93;;
18023;SDS011;9137;50.960;3.118;2023-06-22T08:21:16;13.90;;;12.50;;
18023;SDS011;9137;50.960;3.118;2023-06-22T08:23:43;12.23;;;10.95;;
18023;SDS011;9137;50.960;3.118;2023-06-22T08:26:10;11.55;;;10.35;;
18023;SDS011;9137;50.960;3.118;2023-06-22T08:28:36;11.20;;;10.20;;
18023;SDS011;9137;50.960;3.118;2023-06-22T08:31:03;13.30;;;11.75;;
18023;SDS011;9137;50.960;3.118;2023-06-22T08:33:30;12.40;;;11.15;;
18023;SDS011;9137;50.960;3.118;2023-06-22T08:35:59;13.65;;;11.55;;
18023;SDS011;9137;50.960;3.118;2023-06-22T08:38:26;12.23;;;10.93;;
18023;SDS011;9137;50.960;3.118;2023-06-22T08:40:53;14.50;;;11.90;;
18023;SDS011;9137;50.960;3.118;2023-06-22T08:43:19;12.95;;;10.32;;
18023;SDS011;9137;50.960;3.118;2023-06-22T08:45:46;12.32;;;10.50;;
18023;SDS011;9137;50.960;3.118;2023-06-22T08:48:13;13.63;;;11.07;;
18023;SDS011;9137;50.960;3.118;2023-06-22T08:50:40;13.65;;;11.93;;
18023;SDS011;9137;50.960;3.118;2023-06-22T08:53:09;14.70;;;11.90;;
18023;SDS011;9137;50.960;3.118;2023-06-22T08:55:36;11.73;;;10.57;;
18023;SDS011;9137;50.960;3.118;2023-06-22T08:58:03;13.18;;;11.77;;
18023;SDS011;9137;50.960;3.118;2023-06-22T09:00:30;12.67;;;11.10;;
18023;SDS011;9137;50.960;3.118;2023-06-22T09:02:59;12.30;;;11.23;;
18023;SDS011;9137;50.960;3.118;2023-06-22T09:05:26;11.20;;;10.05;;
18023;SDS011;9137;50.960;3.118;2023-06-22T09:07:53;12.68;;;11.48;;
18023;SDS011;9137;50.960;3.118;2023-06-22T09:10:24;12.60;;;11.50;;
18023;SDS011;9137;50.960;3.118;2023-06-22T09:12:51;12.13;;;11.13;;
18023;SDS011;9137;50.960;3.118;2023-06-22T09:15:19;13.38;;;12.07;;
18023;SDS011;9137;50.960;3.118;2023-06-22T09:17:46;12.95;;;11.65;;
18023;SDS011;9137;50.960;3.118;2023-06-22T09:20:13;13.95;;;12.55;;
18023;SDS011;9137;50.960;3.118;2023-06-22T09:22:40;12.70;;;11.57;;
18023;SDS011;9137;50.960;3.118;2023-06-22T09:25:08;13.90;;;12.27;;
18023;SDS011;9137;50.960;3.118;2023-06-22T09:27:36;12.93;;;11.73;;
18023;SDS011;9137;50.960;3.118;2023-06-22T09:30:04;13.52;;;12.23;;
18023;SDS011;9137;50.960;3.118;2023-06-22T09:32:31;13.40;;;12.10;;
18023;SDS011;9137;50.960;3.118;2023-06-22T09:34:58;13.48;;;12.18;;
18023;SDS011;9137;50.960;3.118;2023-06-22T09:37:28;13.00;;;11.90;;
18023;SDS011;9137;50.960;3.118;2023-06-22T09:39:55;13.65;;;12.35;;
18023;SDS011;9137;50.960;3.118;2023-06-22T09:42:22;14.10;;;12.82;;
18023;SDS011;9137;50.960;3.118;2023-06-22T09:44:50;14.20;;;12.82;;
18023;SDS011;9137;50.960;3.118;2023-06-22T09:47:17;13.80;;;12.40;;
18023;SDS011;9137;50.960;3.118;2023-06-22T09:49:44;13.10;;;11.90;;
18023;SDS011;9137;50.960;3.118;2023-06-22T09:52:11;16.40;;;13.07;;
18023;SDS011;9137;50.960;3.118;2023-06-22T09:54:37;13.85;;;12.50;;
18023;SDS011;9137;50.960;3.118;2023-06-22T09:57:04;13.63;;;12.27;;
18023;SDS011;9137;50.960;3.118;2023-06-22T09:59:31;13.48;;;12.27;;
18023;SDS011;9137;50.960;3.118;2023-06-22T10:02:00;14.55;;;13.23;;
18023;SDS011;9137;50.960;3.118;2023-06-22T10:04:29;13.00;;;11.80;;
18023;SDS011;9137;50.960;3.118;2023-06-22T10:06:56;13.88;;;12.60;;
18023;SDS011;9137;50.960;3.118;2023-06-22T10:09:23;13.52;;;12.30;;
18023;SDS011;9137;50.960;3.118;2023-06-22T10:11:49;12.77;;;11.57;;
18023;SDS011;9137;50.960;3.118;2023-06-22T10:14:16;14.77;;;13.48;;
18023;SDS011;9137;50.960;3.118;2023-06-22T10:16:43;14.27;;;12.88;;
18023;SDS011;9137;50.960;3.118;2023-06-22T10:19:11;15.30;;;13.80;;
18023;SDS011;9137;50.960;3.118;2023-06-22T10:21:38;14.07;;;12.88;;
18023;SDS011;9137;50.960;3.118;2023-06-22T10:24:05;14.98;;;13.57;;
18023;SDS011;9137;50.960;3.118;2023-06-22T10:26:33;13.53;;;12.33;;
18023;SDS011;9137;50.960;3.118;2023-06-22T10:29:01;13.43;;;12.18;;
18023;SDS011;9137;50.960;3.118;2023-06-22T10:31:28;13.17;;;11.93;;
18023;SDS011;9137;50.960;3.118;2023-06-22T10:33:55;14.27;;;12.93;;
18023;SDS011;9137;50.960;3.118;2023-06-22T10:36:24;14.27;;;12.97;;
18023;SDS011;9137;50.960;3.118;2023-06-22T10:38:51;13.98;;;12.80;;
18023;SDS011;9137;50.960;3.118;2023-06-22T10:41:18;13.77;;;12.57;;
18023;SDS011;9137;50.960;3.118;2023-06-22T10:43:45;12.25;;;11.18;;
18023;SDS011;9137;50.960;3.118;2023-06-22T10:46:12;13.95;;;12.65;;
18023;SDS011;9137;50.960;3.118;2023-06-22T10:48:39;12.75;;;11.70;;
18023;SDS011;9137;50.960;3.118;2023-06-22T10:51:06;12.88;;;11.77;;
18023;SDS011;9137;50.960;3.118;2023-06-22T10:53:37;13.23;;;12.07;;
18023;SDS011;9137;50.960;3.118;2023-06-22T10:56:04;12.50;;;11.30;;
18023;SDS011;9137;50.960;3.118;2023-06-22T10:58:31;13.15;;;11.98;;
18023;SDS011;9137;50.960;3.118;2023-06-22T11:00:58;13.70;;;12.40;;
18023;SDS011;9137;50.960;3.118;2023-06-22T11:03:25;15.00;;;13.45;;
18023;SDS011;9137;50.960;3.118;2023-06-22T11:05:52;13.32;;;12.13;;
18023;SDS011;9137;50.960;3.118;2023-06-22T11:08:19;14.60;;;13.20;;
18023;SDS011;9137;50.960;3.118;2023-06-22T11:10:47;14.00;;;12.45;;
18023;SDS011;9137;50.960;3.118;2023-06-22T11:13:14;11.77;;;10.77;;
18023;SDS011;9137;50.960;3.118;2023-06-22T11:15:41;13.70;;;12.43;;
18023;SDS011;9137;50.960;3.118;2023-06-22T11:18:08;13.95;;;12.70;;
18023;SDS011;9137;50.960;3.118;2023-06-22T11:20:35;13.52;;;12.23;;
18023;SDS011;9137;50.960;3.118;2023-06-22T11:23:03;13.97;;;12.67;;
18023;SDS011;9137;50.960;3.118;2023-06-22T11:25:31;12.43;;;11.33;;
18023;SDS011;9137;50.960;3.118;2023-06-22T11:28:01;13.03;;;11.83;;
18023;SDS011;9137;50.960;3.118;2023-06-22T11:30:28;12.48;;;11.38;;
18023;SDS011;9137;50.960;3.118;2023-06-22T11:32:56;14.00;;;12.63;;
18023;SDS011;9137;50.960;3.118;2023-06-22T11:35:23;13.57;;;12.27;;
18023;SDS011;9137;50.960;3.118;2023-06-22T11:37:50;13.30;;;12.10;;
18023;SDS011;9137;50.960;3.118;2023-06-22T11:40:16;13.60;;;12.20;;
18023;SDS011;9137;50.960;3.118;2023-06-22T11:42:43;11.73;;;10.57;;
18023;SDS011;9137;50.960;3.118;2023-06-22T11:45:12;13.50;;;12.27;;
18023;SDS011;9137;50.960;3.118;2023-06-22T11:47:39;14.13;;;11.60;;
18023;SDS011;9137;50.960;3.118;2023-06-22T11:50:06;14.38;;;13.07;;
18023;SDS011;9137;50.960;3.118;2023-06-22T11:52:33;14.93;;;13.05;;
18023;SDS011;9137;50.960;3.118;2023-06-22T11:55:02;13.15;;;11.95;;
18023;SDS011;9137;50.960;3.118;2023-06-22T11:57:32;12.70;;;11.60;;
18023;SDS011;9137;50.960;3.118;2023-06-22T11:59:59;13.93;;;12.68;;
18023;SDS011;9137;50.960;3.118;2023-06-22T12:02:28;12.95;;;11.75;;
18023;SDS011;9137;50.960;3.118;2023-06-22T12:04:55;13.27;;;11.97;;
18023;SDS011;9137;50.960;3.118;2023-06-22T12:07:23;12.65;;;11.45;;
18023;SDS011;9137;50.960;3.118;2023-06-22T12:09:50;12.98;;;11.68;;
18023;SDS011;9137;50.960;3.118;2023-06-22T12:12:17;14.50;;;13.15;;
18023;SDS011;9137;50.960;3.118;2023-06-22T12:14:44;13.87;;;12.57;;
18023;SDS011;9137;50.960;3.118;2023-06-22T12:17:11;14.80;;;13.32;;
18023;SDS011;9137;50.960;3.118;2023-06-22T12:19:40;14.32;;;12.93;;
18023;SDS011;9137;50.960;3.118;2023-06-22T12:22:06;13.82;;;12.50;;
18023;SDS011;9137;50.960;3.118;2023-06-22T12:24:33;14.07;;;12.77;;
18023;SDS011;9137;50.960;3.118;2023-06-22T12:27:00;13.73;;;12.33;;
18023;SDS011;9137;50.960;3.118;2023-06-22T12:29:28;14.70;;;13.23;;
18023;SDS011;9137;50.960;3.118;2023-06-22T12:31:55;14.80;;;13.48;;
18023;SDS011;9137;50.960;3.118;2023-06-22T12:34:22;15.83;;;14.30;;
18023;SDS011;9137;50.960;3.118;2023-06-22T12:36:50;15.98;;;14.55;;
18023;SDS011;9137;50.960;3.118;2023-06-22T12:39:19;15.32;;;13.82;;
18023;SDS011;9137;50.960;3.118;2023-06-22T12:41:46;16.33;;;14.83;;
18023;SDS011;9137;50.960;3.118;2023-06-22T12:44:13;17.02;;;15.43;;
18023;SDS011;9137;50.960;3.118;2023-06-22T12:46:40;17.80;;;16.20;;
18023;SDS011;9137;50.960;3.118;2023-06-22T12:49:07;15.60;;;14.20;;
18023;SDS011;9137;50.960;3.118;2023-06-22T12:51:38;19.05;;;17.25;;
18023;SDS011;9137;50.960;3.118;2023-06-22T12:54:08;20.20;;;18.20;;
18023;SDS011;9137;50.960;3.118;2023-06-22T12:56:36;20.60;;;18.60;;
18023;SDS011;9137;50.960;3.118;2023-06-22T12:59:04;21.33;;;19.27;;
18023;SDS011;9137;50.960;3.118;2023-06-22T13:01:31;21.45;;;19.30;;
18023;SDS011;9137;50.960;3.118;2023-06-22T13:03:58;20.85;;;18.85;;
18023;SDS011;9137;50.960;3.118;2023-06-22T13:06:25;21.02;;;19.05;;
18023;SDS011;9137;50.960;3.118;2023-06-22T13:08:52;20.88;;;18.67;;
18023;SDS011;9137;50.960;3.118;2023-06-22T13:11:20;19.67;;;17.83;;
18023;SDS011;9137;50.960;3.118;2023-06-22T13:13:47;18.13;;;16.45;;
18023;SDS011;9137;50.960;3.118;2023-06-22T13:16:14;19.27;;;17.27;;
18023;SDS011;9137;50.960;3.118;2023-06-22T13:18:41;18.20;;;16.50;;
18023;SDS011;9137;50.960;3.118;2023-06-22T13:21:08;18.17;;;16.27;;
18023;SDS011;9137;50.960;3.118;2023-06-22T13:23:35;16.58;;;14.77;;
18023;SDS011;9137;50.960;3.118;2023-06-22T13:26:02;16.77;;;15.07;;
18023;SDS011;9137;50.960;3.118;2023-06-22T13:28:30;16.80;;;15.20;;
18023;SDS011;9137;50.960;3.118;2023-06-22T13:30:57;14.07;;;12.67;;
18023;SDS011;9137;50.960;3.118;2023-06-22T13:33:24;13.68;;;12.30;;
18023;SDS011;9137;50.960;3.118;2023-06-22T13:35:51;13.80;;;12.55;;
18023;SDS011;9137;50.960;3.118;2023-06-22T13:38:18;13.18;;;11.98;;
18023;SDS011;9137;50.960;3.118;2023-06-22T13:40:45;13.63;;;11.73;;
18023;SDS011;9137;50.960;3.118;2023-06-22T13:43:12;13.03;;;11.83;;
18023;SDS011;9137;50.960;3.118;2023-06-22T13:45:42;14.38;;;12.88;;
18023;SDS011;9137;50.960;3.118;2023-06-22T13:48:09;13.40;;;12.10;;
18023;SDS011;9137;50.960;3.118;2023-06-22T13:50:36;14.40;;;12.93;;
18023;SDS011;9137;50.960;3.118;2023-06-22T13:53:03;14.65;;;13.15;;
18023;SDS011;9137;50.960;3.118;2023-06-22T13:55:30;14.30;;;12.82;;
18023;SDS011;9137;50.960;3.118;2023-06-22T13:57:56;14.90;;;13.40;;
18023;SDS011;9137;50.960;3.118;2023-06-22T14:00:23;14.25;;;12.95;;
18023;SDS011;9137;50.960;3.118;2023-06-22T14:02:52;13.90;;;12.60;;
18023;SDS011;9137;50.960;3.118;2023-06-22T14:05:18;15.10;;;13.57;;
18023;SDS011;9137;50.960;3.118;2023-06-22T14:07:45;15.60;;;14.10;;
18023;SDS011;9137;50.960;3.118;2023-06-22T14:10:12;14.15;;;12.73;;
18023;SDS011;9137;50.960;3.118;2023-06-22T14:12:39;12.93;;;11.65;;
18023;SDS011;9137;50.960;3.118;2023-06-22T14:15:06;12.48;;;11.38;;
18023;SDS011;9137;50.960;3.118;2023-06-22T14:17:33;11.23;;;10.17;;
18023;SDS011;9137;50.960;3.118;2023-06-22T14:20:02;10.45;;;9.45;;
18023;SDS011;9137;50.960;3.118;2023-06-22T14:22:30;10.68;;;9.57;;
18023;SDS011;9137;50.960;3.118;2023-06-22T14:24:57;10.32;;;9.32;;
18023;SDS011;9137;50.960;3.118;2023-06-22T14:27:24;12.68;;;11.48;;
18023;SDS011;9137;50.960;3.118;2023-06-22T14:29:51;12.35;;;11.32;;
18023;SDS011;9137;50.960;3.118;2023-06-22T14:32:18;10.13;;;9.05;;
18023;SDS011;9137;50.960;3.118;2023-06-22T14:34:45;9.20;;;8.23;;
18023;SDS011;9137;50.960;3.118;2023-06-22T14:37:13;10.75;;;9.82;;
18023;SDS011;9137;50.960;3.118;2023-06-22T14:39:40;12.35;;;11.05;;
18023;SDS011;9137;50.960;3.118;2023-06-22T14:42:08;12.27;;;11.17;;
18023;SDS011;9137;50.960;3.118;2023-06-22T14:44:35;9.90;;;9.00;;
18023;SDS011;9137;50.960;3.118;2023-06-22T14:47:02;9.85;;;8.68;;
18023;SDS011;9137;50.960;3.118;2023-06-22T14:49:29;11.07;;;10.00;;
18023;SDS011;9137;50.960;3.118;2023-06-22T14:51:56;11.35;;;10.25;;
18023;SDS011;9137;50.960;3.118;2023-06-22T14:54:24;11.52;;;10.43;;